LPFRLEJR

Guest
Details From LPFR - Faro
To LEJR - Jerez
Flight Number -
Tags Generated
Created
Modified
Stats Distance 94 nm / 174 km
Max Altitude 0 ft / 0 m
Waypoints 2
Social Downloads 0
Likes 0
Share VATSIM

Download

Looking for another format? Having issues loading an existing format? Contact us
Advertisement - Login to hide

Notes

Generated

Route

LPFR LEJR

ID Type Via Altitude Latitude Longitude Leg Dist Tot Dist Heading (true) Name
O LPFR APT - 0 ft / 0 m 37.01729˚ -7.98609˚ - 0 nm - -
O LEJR APT - 0 ft / 0 m 36.73497˚ -6.06481˚ 93 nm 93 nm 100° / 101° -

Altitude Profile

Advertisement - Login to hide

LPFR

Details ICAO LPFR (FAO)
Name Faro
Region Portugal
Timezone Europe/Lisbon (UTC+0.0)
Stats Elevation 24 ft / 7 m (AMSL)
Location 37.015336° -7.972327°
Runways 1
Magnetic Variation 1.936° W

METAR

LPFR 131500Z 11008KT CAVOK 16/02 Q1027

Decode

TAF

TAF LPFR 131100Z 1312/1412 09008KT CAVOK BECMG 1315/1318 VRB03KT BECMG 1400/1403 01005KT 9999 FEW012 SCT030 BECMG 1409/1412 27007KT BKN025

Decode

Departure Runways

ID Width Length Bearing (true) Bearing (mag) Surface Threshold Offset Overrun Length
10 148 ft / 45 m 8,148 ft / 2,484 m 100.08° 102.02° Asphalt 148 ft / 45 m 0 ft / 0 m
28 148 ft / 45 m 8,148 ft / 2,484 m 280.10° 282.04° Asphalt 148 ft / 45 m 0 ft / 0 m

LEJR

Details ICAO LEJR (XRY)
Name Jerez
Region Spain
Timezone Europe/Madrid (UTC+1.0)
Stats Elevation 93 ft / 28 m (AMSL)
Location 36.744622° -6.060110°
Runways 2
Magnetic Variation 1.338° W

METAR

LEJR 131500Z 34005KT 310V020 9999 FEW025 15/05 Q1027

Decode

TAF

TAF LEJR 131100Z 1312/1412 03004KT CAVOK TX16/1315Z TN03/1407Z

Decode

Destination Runways

ID Width Length Bearing (true) Bearing (mag) Surface Threshold Offset Overrun Length
02 148 ft / 45 m 7,559 ft / 2,304 m 21.34° 22.68° Asphalt 0 ft / 0 m 0 ft / 0 m
03 148 ft / 45 m 7,559 ft / 2,304 m 21.34° 22.68° Asphalt 0 ft / 0 m 0 ft / 0 m
20 148 ft / 45 m 7,559 ft / 2,304 m 201.34° 202.68° Asphalt 0 ft / 0 m 0 ft / 0 m
21 148 ft / 45 m 7,559 ft / 2,304 m 201.34° 202.68° Asphalt 0 ft / 0 m 0 ft / 0 m

Approach Navaids

Runway Type Ident Frequency Range Bearing (true) Bearing (mag) Slope Elevation
20 Localiser IJR 108.90 MHz 18 nm / 33 km 201.34° 202.68° - 68 ft / 21 m (AMSL)
20 Glidescope IJR 108.90 MHz 10 nm / 19 km 201.34° 202.68° 3.00° 93 ft / 28 m (AMSL)
20 DME IJR 108.90 MHz 18 nm / 33 km - - - 93 ft / 28 m (AMSL)

Popular Alternatives